Portada
METAR-TAF:

METAR-TAF

Aeroports :

Ciutat de Guatemala, Guatemala

latitud: 14-35N, longitud: 090-31W, altitud: 1489 m

Observació

L'informe es va fer fa 25 minuts, a les 02:00 UTC
Vent 10 kt del Sud
Temperatura 18°C
Humitat 94%
Pressió 1016 hPa
Visibilitat: 8000 m
Cel ennuvolat a una alçada de 1200 ft
Cel cobert a una alçada de 8000 ft
plugim,

METAR: MGGT 180200Z 18010KT 8000 -DZ BKN012 OVC080 18/17 Q1016 A3000

Hora: 20:25 (02:25 UTC)

Pronòstic

L'informe es va fer fa 3 hores i 25 minuts, a les 23:00 UTC
Pronòstic vàlid del 18 a les 00 UTC al 18 a les 24 UTC
Vent 16 kt del Sud
Visibilitat 10 km o més
Cel ennuvolat a una alçada de 1400 ft
Cel ennuvolat a una alçada de 8000 ft
Temporalment
l' 18 a les 00 UTC al 18 a les 10 UTC
Visibilitat: 8000 m
Cel cobert a una alçada de 1400 ft
pluja, plugim,

TAF: MGGT 172300Z 1800/1824 18016KT 9999 BKN014 BKN080 TX23/1820Z TN16/1812Z TEMPO 1800/1810 8000 RADZ OVC014

Observacions i pronòstics meteorològics de més de 4000 aeroports (METAR i TAF).

Les estacions disponibles són els punts grocs i vermells al mapa.

Posi el ratolí al punt desitjat per veure el nom de l'estació.

Feu clic per veure les observacions i els pronòstics meteorològics.

Per canviar el mapa: feu clic els botons verds amb una creu de color negre per apropar; al botó verd amb un guió per allunyar la imatge; o en les fletxes verdes per a mapes adjacents.


METAR-TAF: